Time;durP1;ratioP1;P1;durP2;ratioP2;P2;SDS_P1;SDS_P2;PMS_P1;PMS_P2;Temp;Humidity;BMP_temperature;BMP_pressure;BME280_temperature;BME280_humidity;BME280_pressure;Samples;Min_cycle;Max_cycle;Signal;HPM_P1;HPM_P2
2023/03/22 05:04:12;;;;;;;26.20;10.63;;;;;;;5.77;100.00;100390.72;5562507;28;20135;-83
2023/03/22 05:07:16;;;;;;;17.30;11.07;;;;;;;5.83;100.00;100395.47;5288916;33;33234;-84
2023/03/22 05:10:20;;;;;;;20.98;10.13;;;;;;;5.85;100.00;100395.31;5276191;33;34071;-85
2023/03/22 05:13:25;;;;;;;17.33;9.77;;;;;;;5.85;100.00;100406.84;5289183;33;33602;-85
2023/03/22 05:16:29;;;;;;;20.10;10.95;;;;;;;5.97;100.00;100404.00;5289364;33;33340;-85
2023/03/22 05:19:32;;;;;;;17.92;11.35;;;;;;;6.09;100.00;100410.88;5265987;33;33455;-85
2023/03/22 05:22:39;;;;;;;16.48;9.68;;;;;;;6.04;100.00;100407.78;5280630;33;34371;-85
2023/03/22 05:25:45;;;;;;;17.95;9.90;;;;;;;6.15;100.00;100412.09;5260264;33;33835;-85
2023/03/22 05:28:50;;;;;;;17.33;10.60;;;;;;;6.34;100.00;100415.50;5284380;33;33169;-83
2023/03/22 05:31:53;;;;;;;17.55;9.80;;;;;;;6.43;100.00;100416.44;5275714;33;33560;-83
2023/03/22 05:34:56;;;;;;;16.48;10.10;;;;;;;6.53;100.00;100411.03;5263605;33;33822;-83
2023/03/22 05:38:01;;;;;;;16.37;9.30;;;;;;;6.69;100.00;100415.69;5262102;33;33536;-83
2023/03/22 05:41:05;;;;;;;19.60;10.45;;;;;;;6.96;100.00;100421.00;5258787;33;34031;-84
2023/03/22 05:44:08;;;;;;;18.50;9.23;;;;;;;7.32;100.00;100420.97;5253872;33;33536;-89
2023/03/22 05:47:12;;;;;;;16.70;10.38;;;;;;;7.50;100.00;100421.75;5268036;33;34572;-88
2023/03/22 05:50:19;;;;;;;14.57;9.27;;;;;;;7.75;100.00;100408.53;5258486;33;33624;-88
2023/03/22 05:53:22;;;;;;;18.80;10.27;;;;;;;8.05;100.00;100411.69;5271549;33;33667;-86
2023/03/22 05:56:25;;;;;;;18.33;10.80;;;;;;;8.25;100.00;100439.94;5270935;33;33180;-84
2023/03/22 05:59:29;;;;;;;20.95;9.98;;;;;;;8.46;99.84;100433.34;5258370;33;33340;-84
2023/03/22 06:02:32;;;;;;;17.67;11.07;;;;;;;8.60;98.29;100430.03;5246471;33;33216;-84
2023/03/22 06:05:38;;;;;;;18.58;10.82;;;;;;;8.60;98.00;100422.81;5246763;33;34198;-84
2023/03/22 06:08:42;;;;;;;17.95;11.00;;;;;;;8.72;98.79;100439.44;5270979;33;34391;-83
2023/03/22 06:11:44;;;;;;;21.15;11.30;;;;;;;8.71;97.87;100443.13;5258202;33;33523;-84
2023/03/22 06:14:49;;;;;;;15.90;10.13;;;;;;;8.58;97.40;100446.28;5249204;33;33954;-83
2023/03/22 06:17:53;;;;;;;17.33;10.65;;;;;;;8.66;97.77;100440.13;5249128;33;33436;-84
2023/03/22 06:20:56;;;;;;;22.13;12.25;;;;;;;8.65;99.66;100435.72;5271988;33;33492;-83
2023/03/22 06:24:00;;;;;;;20.52;12.18;;;;;;;8.75;99.04;100432.91;5260685;33;33818;-84
2023/03/22 06:27:03;;;;;;;24.60;12.77;;;;;;;9.13;95.68;100444.88;5260723;33;33077;-84
2023/03/22 06:30:07;;;;;;;20.90;12.43;;;;;;;9.58;92.22;100443.53;5260373;33;33443;-83
2023/03/22 06:33:12;;;;;;;23.90;12.13;;;;;;;9.80;89.48;100454.56;5259880;33;34001;-86
2023/03/22 06:36:16;;;;;;;20.42;12.10;;;;;;;9.88;90.99;100466.16;5248613;33;34850;-85
2023/03/22 06:39:21;;;;;;;19.67;12.35;;;;;;;10.06;90.14;100457.91;5249299;33;34778;-86
2023/03/22 06:42:25;;;;;;;19.48;11.10;;;;;;;10.53;84.80;100453.53;5273005;33;33418;-85
2023/03/22 06:45:32;;;;;;;24.63;12.82;;;;;;;10.82;85.22;100459.09;5260082;33;33097;-84
2023/03/22 06:48:35;;;;;;;23.48;12.10;;;;;;;11.26;80.31;100452.22;5273299;33;33987;-83
2023/03/22 06:51:38;;;;;;;18.55;12.13;;;;;;;11.75;79.80;100457.19;5285597;33;33514;-83
2023/03/22 06:54:42;;;;;;;21.60;12.52;;;;;;;12.21;76.14;100451.69;5267004;33;34251;-86
2023/03/22 06:57:45;;;;;;;23.98;12.48;;;;;;;12.24;75.47;100454.00;5263782;33;33441;-86
2023/03/22 07:00:48;;;;;;;22.95;10.90;;;;;;;12.13;76.58;100449.91;5273659;33;33557;-86
2023/03/22 07:03:51;;;;;;;22.02;11.90;;;;;;;11.98;77.40;100455.28;5281449;33;34062;-86
2023/03/22 07:06:56;;;;;;;18.48;11.12;;;;;;;11.85;77.14;100452.41;5273518;33;33677;-84
2023/03/22 07:09:59;;;;;;;17.23;11.10;;;;;;;12.19;75.57;100459.12;5264411;33;33962;-84
2023/03/22 07:13:02;;;;;;;17.30;9.75;;;;;;;12.12;75.58;100463.59;5268217;33;34343;-83
2023/03/22 07:16:06;;;;;;;15.38;8.60;;;;;;;12.20;76.37;100455.41;5284041;33;34278;-86
2023/03/22 07:19:10;;;;;;;13.95;9.75;;;;;;;12.18;74.42;100458.28;5272238;33;33303;-86
2023/03/22 07:22:13;;;;;;;16.60;9.95;;;;;;;12.14;75.93;100469.62;5275746;33;34935;-83
2023/03/22 07:25:16;;;;;;;14.77;9.70;;;;;;;11.93;74.64;100468.50;5261263;33;33341;-84
2023/03/22 07:28:22;;;;;;;17.12;10.05;;;;;;;12.00;74.71;100479.41;5249366;33;34282;-84
2023/03/22 07:31:25;;;;;;;16.33;10.50;;;;;;;12.38;73.92;100474.75;5271398;33;34315;-84
2023/03/22 07:34:28;;;;;;;25.35;11.32;;;;;;;12.57;74.21;100465.22;5268942;33;33317;-84
2023/03/22 07:37:32;;;;;;;16.27;10.07;;;;;;;12.70;72.90;100461.88;5290423;33;33121;-85
2023/03/22 07:40:36;;;;;;;17.98;10.25;;;;;;;12.76;72.20;100458.41;5290203;33;33513;-85
2023/03/22 07:43:40;;;;;;;15.25;9.75;;;;;;;12.94;69.82;100469.62;5285571;33;33820;-88
2023/03/22 07:46:58;;;;;;;16.27;10.05;;;;;;;13.28;69.08;100465.44;5267512;33;33293;-85
2023/03/22 07:50:01;;;;;;;17.30;11.05;;;;;;;13.42;68.23;100462.84;5264893;33;33259;-85
2023/03/22 07:53:05;;;;;;;18.45;10.82;;;;;;;13.50;67.25;100468.94;5274624;33;34279;-83
2023/03/22 07:56:09;;;;;;;14.87;10.10;;;;;;;13.57;67.59;100464.44;5271243;33;33340;-84
2023/03/22 07:59:11;;;;;;;15.65;10.18;;;;;;;13.42;69.98;100465.53;5265071;33;33757;-85
2023/03/22 08:02:15;;;;;;;16.08;10.38;;;;;;;13.82;65.86;100456.72;5282730;33;34034;-83
2023/03/22 08:05:19;;;;;;;14.90;10.93;;;;;;;14.21;64.75;100454.47;5263734;33;33979;-83
2023/03/22 08:08:23;;;;;;;15.18;9.50;;;;;;;14.18;63.99;100449.44;5265960;33;33587;-83
2023/03/22 08:11:26;;;;;;;15.90;10.32;;;;;;;14.25;63.77;100442.22;5275401;33;33526;-82
2023/03/22 08:14:29;;;;;;;14.23;8.90;;;;;;;13.94;64.90;100448.06;5271775;33;33695;-84
2023/03/22 08:17:39;;;;;;;16.42;9.50;;;;;;;14.26;63.81;100458.25;5275635;33;33383;-83
2023/03/22 08:20:44;;;;;;;14.93;9.35;;;;;;;14.41;62.67;100454.56;5263559;33;33650;-83
2023/03/22 08:23:49;;;;;;;15.07;9.15;;;;;;;14.61;62.30;100449.28;5268752;33;33964;-83
2023/03/22 08:26:55;;;;;;;14.75;9.50;;;;;;;14.83;60.33;100449.97;5278633;33;33747;-82
2023/03/22 08:30:00;;;;;;;15.18;9.90;;;;;;;14.45;62.18;100455.81;5279083;33;34280;-83
2023/03/22 08:33:03;;;;;;;16.55;10.18;;;;;;;14.29;62.92;100457.00;5281488;33;33685;-83
2023/03/22 08:36:11;;;;;;;15.85;9.18;;;;;;;14.14;63.47;100461.72;5287717;33;33924;-82
2023/03/22 08:39:14;;;;;;;19.37;9.35;;;;;;;14.69;61.58;100465.38;5294709;33;33134;-82
2023/03/22 08:42:21;;;;;;;16.17;8.57;;;;;;;14.93;60.43;100466.69;5280462;33;33640;-82
2023/03/22 08:45:24;;;;;;;16.27;9.07;;;;;;;15.09;60.19;100465.47;5259561;33;33383;-81
2023/03/22 08:48:29;;;;;;;11.40;7.53;;;;;;;15.50;58.46;100461.75;5265696;33;33260;-81
2023/03/22 08:51:32;;;;;;;11.63;7.18;;;;;;;15.60;56.90;100457.59;5282880;33;31946;-83
2023/03/22 08:54:39;;;;;;;9.93;7.28;;;;;;;15.26;56.96;100455.06;5259744;33;33036;-82
2023/03/22 08:57:49;;;;;;;10.55;7.70;;;;;;;14.94;58.93;100458.34;5269121;33;33441;-84
2023/03/22 09:00:52;;;;;;;13.77;7.72;;;;;;;15.00;59.11;100453.97;5277092;33;33507;-84
2023/03/22 09:03:56;;;;;;;12.20;8.25;;;;;;;14.93;59.16;100451.25;5285285;33;33525;-82
2023/03/22 09:07:00;;;;;;;16.23;7.97;;;;;;;15.09;58.87;100465.47;5282989;33;33449;-82
2023/03/22 09:10:03;;;;;;;14.07;8.98;;;;;;;15.49;58.88;100469.06;5265252;33;33485;-82
2023/03/22 09:13:06;;;;;;;14.95;8.85;;;;;;;15.71;57.06;100460.78;5277904;33;33884;-82
2023/03/22 09:16:09;;;;;;;15.88;8.85;;;;;;;16.20;55.45;100460.25;5265902;33;34961;-82
2023/03/22 09:19:13;;;;;;;11.88;8.30;;;;;;;16.16;54.72;100455.47;5280973;33;33649;-82
2023/03/22 09:22:16;;;;;;;16.08;9.57;;;;;;;16.18;56.18;100446.09;5276727;33;34257;-82
2023/03/22 09:25:20;;;;;;;13.20;8.45;;;;;;;16.05;56.08;100457.78;5281694;33;34158;-86
2023/03/22 09:28:23;;;;;;;13.30;9.00;;;;;;;16.40;54.91;100453.94;5283819;33;35108;-86
2023/03/22 09:31:27;;;;;;;13.13;8.50;;;;;;;16.41;55.19;100452.88;5262270;33;34816;-87
2023/03/22 09:34:31;;;;;;;14.52;9.13;;;;;;;16.16;57.12;100452.78;5284453;33;33586;-83
2023/03/22 09:37:35;;;;;;;13.45;9.10;;;;;;;16.69;54.77;100439.00;5259156;33;34823;-83
2023/03/22 09:40:46;;;;;;;13.57;9.13;;;;;;;16.62;54.23;100443.63;5266962;33;33128;-83
2023/03/22 09:43:56;;;;;;;18.80;8.93;;;;;;;16.52;53.61;100439.47;5279125;33;33705;-83
2023/03/22 09:47:02;;;;;;;13.15;8.38;;;;;;;16.67;53.82;100433.78;5289898;33;33627;-83
2023/03/22 09:50:17;;;;;;;13.57;8.73;;;;;;;16.76;53.25;100440.66;5292920;33;33453;-82
2023/03/22 09:53:39;;;;;;;12.75;8.73;;;;;;;16.41;54.56;100434.72;5290436;33;34400;-82
2023/03/22 09:57:01;;;;;;;13.65;8.70;;;;;;;16.82;53.79;100429.94;5291045;33;33480;-83
2023/03/22 10:00:17;;;;;;;15.40;8.57;;;;;;;16.82;53.01;100429.94;5276346;33;35058;-82
2023/03/22 10:03:47;;;;;;;11.30;8.13;;;;;;;17.00;52.82;100422.75;5277633;33;34370;-82
2023/03/22 10:07:00;;;;;;;13.48;8.27;;;;;;;17.00;53.00;100428.19;5289702;33;33535;-83
2023/03/22 10:10:18;;;;;;;13.88;8.40;;;;;;;17.09;52.17;100434.19;5271950;33;33571;-83
2023/03/22 10:13:30;;;;;;;14.68;8.05;;;;;;;16.18;54.96;100428.94;5281557;33;33109;-83
2023/03/22 10:16:34;;;;;;;12.55;8.27;;;;;;;16.27;55.34;100430.37;5284687;33;33725;-83
2023/03/22 10:19:55;;;;;;;12.75;7.87;;;;;;;15.87;56.29;100425.03;5264868;33;33483;-82
2023/03/22 10:23:00;;;;;;;11.65;7.12;;;;;;;15.92;56.51;100427.13;5279721;33;33441;-82
2023/03/22 10:26:05;;;;;;;13.75;7.20;;;;;;;15.81;56.11;100428.59;5283956;33;34683;-82
2023/03/22 10:29:31;;;;;;;13.60;8.13;;;;;;;15.61;56.23;100426.69;5286672;33;33574;-83
2023/03/22 10:33:03;;;;;;;12.02;7.20;;;;;;;15.51;57.39;100418.16;5279422;33;33871;-82
2023/03/22 10:36:12;;;;;;;10.57;7.15;;;;;;;15.59;57.17;100423.37;5287928;33;33210;-82
2023/03/22 10:39:35;;;;;;;10.60;6.75;;;;;;;15.67;56.07;100425.03;5285130;33;33183;-82
2023/03/22 10:42:51;;;;;;;10.68;7.00;;;;;;;15.46;57.28;100422.53;5287354;33;34654;-82
2023/03/22 10:45:55;;;;;;;11.52;7.30;;;;;;;15.27;57.86;100426.91;5283590;33;34608;-82
2023/03/22 10:48:59;;;;;;;13.68;7.82;;;;;;;15.33;58.03;100420.66;5272201;33;33400;-85
2023/03/22 10:52:11;;;;;;;10.68;7.10;;;;;;;15.28;58.18;100424.00;5274617;33;34584;-85
2023/03/22 10:55:15;;;;;;;11.02;7.53;;;;;;;15.05;59.18;100423.53;5272999;33;33067;-82
2023/03/22 10:58:21;;;;;;;11.80;7.10;;;;;;;14.84;59.08;100417.25;5275673;33;33506;-83
2023/03/22 11:01:29;;;;;;;11.70;7.28;;;;;;;14.90;59.57;100423.72;5278189;33;33517;-82
2023/03/22 11:04:36;;;;;;;12.27;7.35;;;;;;;14.89;59.50;100419.34;5278034;33;33852;-84
2023/03/22 11:07:43;;;;;;;11.57;7.90;;;;;;;14.87;60.91;100416.00;5275734;33;33497;-84
2023/03/22 11:10:51;;;;;;;14.13;7.68;;;;;;;14.82;60.83;100404.94;5288540;33;33972;-84
2023/03/22 11:13:55;;;;;;;12.30;7.47;;;;;;;14.74;59.96;100401.38;5288766;33;34143;-84
2023/03/22 11:17:07;;;;;;;16.25;7.82;;;;;;;14.55;60.50;100406.75;5276533;33;33435;-84
2023/03/22 11:20:16;;;;;;;12.15;7.45;;;;;;;14.55;60.67;100396.72;5276793;33;33620;-85
2023/03/22 11:23:20;;;;;;;12.70;7.35;;;;;;;14.39;61.63;100388.91;5288495;33;33831;-84
2023/03/22 11:26:28;;;;;;;16.95;8.23;;;;;;;14.46;61.60;100396.03;5291821;33;33407;-84
2023/03/22 11:29:45;;;;;;;14.23;8.05;;;;;;;14.52;61.26;100383.59;5293156;33;33707;-84
2023/03/22 11:32:59;;;;;;;17.90;8.38;;;;;;;14.52;61.65;100386.31;5289439;33;33181;-84
2023/03/22 11:36:17;;;;;;;15.48;8.65;;;;;;;14.36;63.07;100378.50;5286541;33;34529;-85
2023/03/22 11:39:21;;;;;;;16.90;8.82;;;;;;;14.57;62.42;100378.41;5286925;33;33457;-85
2023/03/22 11:42:25;;;;;;;13.27;8.10;;;;;;;14.60;62.67;100385.28;5287541;33;34346;-85
2023/03/22 11:45:35;;;;;;;15.05;8.57;;;;;;;14.82;61.15;100370.53;5283748;33;33864;-85
2023/03/22 11:48:40;;;;;;;13.27;7.93;;;;;;;15.05;61.12;100359.31;5288412;33;33470;-85
2023/03/22 11:51:45;;;;;;;11.75;7.82;;;;;;;15.25;60.36;100359.31;5270637;33;33568;-85
2023/03/22 11:54:49;;;;;;;13.32;8.23;;;;;;;15.56;58.03;100365.94;5291395;33;32901;-89
2023/03/22 11:57:55;;;;;;;12.37;8.05;;;;;;;15.74;57.04;100363.47;5285933;33;34627;-89
2023/03/22 12:01:01;;;;;;;17.42;8.30;;;;;;;16.02;56.73;100365.06;5289117;33;34253;-85
2023/03/22 12:04:09;;;;;;;20.10;8.63;;;;;;;16.42;55.71;100360.31;5288864;33;34283;-85
2023/03/22 12:07:16;;;;;;;13.68;8.45;;;;;;;16.99;54.76;100368.56;5286199;33;34216;-85
2023/03/22 12:10:25;;;;;;;15.57;7.62;;;;;;;17.13;52.76;100355.69;5301418;33;34512;-85
2023/03/22 12:13:47;;;;;;;14.15;7.80;;;;;;;17.73;51.15;100366.06;5290463;33;33620;-85
2023/03/22 12:16:54;;;;;;;12.23;7.70;;;;;;;18.06;49.75;100371.16;5276254;33;33496;-85
2023/03/22 12:20:08;;;;;;;12.73;7.30;;;;;;;18.85;48.00;100371.22;5289992;33;33212;-85
2023/03/22 12:23:16;;;;;;;14.38;7.57;;;;;;;19.64;46.19;100358.97;5290458;33;34360;-85
2023/03/22 12:26:25;;;;;;;16.20;8.48;;;;;;;19.23;45.72;100354.44;5291132;33;33745;-85
2023/03/22 12:29:29;;;;;;;15.63;7.87;;;;;;;18.93;46.29;100351.78;5282820;33;33453;-85
2023/03/22 12:32:38;;;;;;;11.23;6.95;;;;;;;19.13;45.81;100340.53;5284986;33;33753;-85
2023/03/22 12:35:45;;;;;;;11.52;7.57;;;;;;;18.93;47.20;100352.63;5281974;33;33728;-85
2023/03/22 12:38:55;;;;;;;13.13;7.65;;;;;;;18.92;46.54;100347.38;5290405;33;33948;-85
2023/03/22 12:42:04;;;;;;;10.45;6.62;;;;;;;18.52;46.85;100348.78;5296604;33;33726;-85
2023/03/22 12:45:15;;;;;;;10.43;7.17;;;;;;;18.43;47.64;100350.16;5290985;33;33624;-85
2023/03/22 12:48:30;;;;;;;11.73;6.82;;;;;;;18.20;48.18;100348.16;5289633;33;33360;-85
2023/03/22 12:51:34;;;;;;;14.65;7.72;;;;;;;18.40;47.27;100345.16;5291233;33;33489;-90
2023/03/22 12:54:38;;;;;;;10.52;6.60;;;;;;;18.66;46.60;100340.38;5267392;33;33894;-90
2023/03/22 12:57:43;;;;;;;8.75;6.37;;;;;;;19.03;46.39;100338.37;5278879;33;34086;-89
2023/03/22 13:00:56;;;;;;;11.68;6.53;;;;;;;18.48;46.13;100344.00;5261323;33;33170;-86
2023/03/22 13:04:25;;;;;;;8.32;5.40;;;;;;;18.66;46.46;100338.53;5287121;33;33594;-85
2023/03/22 13:07:46;;;;;;;10.40;5.15;;;;;;;18.89;44.09;100328.75;5277220;33;33424;-85
2023/03/22 13:11:02;;;;;;;8.52;4.85;;;;;;;19.09;43.27;100314.78;5291203;33;34561;-85
2023/03/22 13:14:05;;;;;;;7.07;4.80;;;;;;;19.32;42.64;100309.34;5290971;33;34368;-85
2023/03/22 13:17:32;;;;;;;5.50;3.95;;;;;;;19.49;42.13;100312.19;5291343;33;34241;-85
2023/03/22 13:20:39;;;;;;;6.97;4.15;;;;;;;19.82;40.43;100305.31;5290866;33;33918;-85
2023/03/22 13:23:51;;;;;;;5.70;3.33;;;;;;;19.95;39.60;100307.78;5290445;33;33832;-85
2023/03/22 13:26:58;;;;;;;4.12;2.80;;;;;;;20.02;37.93;100300.25;5290605;33;33058;-87
2023/03/22 13:30:03;;;;;;;3.40;2.95;;;;;;;20.12;38.40;100297.75;5290505;33;33128;-87
2023/03/22 13:33:09;;;;;;;6.87;3.22;;;;;;;20.26;37.94;100291.97;5290645;33;34234;-87
2023/03/22 13:36:24;;;;;;;5.22;3.85;;;;;;;20.41;37.21;100294.16;5289920;33;33531;-87
2023/03/22 13:39:33;;;;;;;9.98;3.70;;;;;;;20.66;37.23;100294.69;5290386;33;33685;-91
2023/03/22 13:42:40;;;;;;;6.45;3.90;;;;;;;20.64;38.95;100285.88;5289441;33;33938;-86
2023/03/22 13:46:18;;;;;;;6.50;3.92;;;;;;;20.44;38.13;100283.56;5288986;33;33384;-85
2023/03/22 13:49:30;;;;;;;7.40;4.18;;;;;;;20.33;39.49;100282.56;5289328;33;33594;-85
2023/03/22 13:52:52;;;;;;;6.45;3.62;;;;;;;19.86;38.24;100282.72;5289143;33;34158;-85
2023/03/22 13:55:57;;;;;;;5.12;3.67;;;;;;;19.92;38.50;100275.47;5289216;33;33180;-85
2023/03/22 13:59:03;;;;;;;7.10;3.83;;;;;;;19.92;39.35;100270.84;5289861;33;33955;-85
2023/03/22 14:02:09;;;;;;;7.00;3.92;;;;;;;19.93;39.45;100277.13;5289192;33;34675;-85
2023/03/22 14:05:18;;;;;;;4.65;3.78;;;;;;;19.90;37.66;100270.25;5288739;33;34394;-87
2023/03/22 14:08:27;;;;;;;10.27;3.90;;;;;;;19.27;38.98;100268.28;5290736;33;34286;-88
2023/03/22 14:11:45;;;;;;;6.32;3.42;;;;;;;19.13;39.83;100267.72;5291382;33;33253;-87
2023/03/22 14:14:54;;;;;;;5.68;3.55;;;;;;;18.96;40.37;100267.56;5289802;33;33137;-87
2023/03/22 14:18:16;;;;;;;;;;;;;;;19.17;39.89;100257.97;5290307;33;33687;-87
2023/03/22 14:21:28;;;;;;;7.82;3.40;;;;;;;19.00;40.41;100257.00;5289919;33;36287;-92
2023/03/22 14:24:32;;;;;;;4.07;3.12;;;;;;;19.11;39.34;100249.91;5289838;33;33578;-87
2023/03/22 14:27:35;;;;;;;5.03;3.65;;;;;;;19.02;39.68;100250.25;5287626;33;33488;-84
2023/03/22 14:30:39;;;;;;;5.47;3.72;;;;;;;18.56;39.79;100248.25;5275084;33;34209;-86
2023/03/22 14:33:42;;;;;;;5.85;3.80;;;;;;;18.44;39.84;100245.50;5287741;33;34173;-86
2023/03/22 14:36:48;;;;;;;5.75;3.78;;;;;;;18.19;42.05;100255.72;5290183;33;33354;-87
2023/03/22 14:39:50;;;;;;;5.65;3.90;;;;;;;18.37;42.33;100255.69;5289854;33;33378;-86
2023/03/22 14:42:52;;;;;;;7.32;4.60;;;;;;;18.46;41.24;100250.72;5288919;33;34260;-86
2023/03/22 14:46:10;;;;;;;7.22;4.60;;;;;;;18.04;41.51;100251.50;5268979;33;33633;-86
2023/03/22 14:49:16;;;;;;;5.43;4.27;;;;;;;17.95;42.37;100252.88;5304252;33;34736;-86
2023/03/22 14:52:22;;;;;;;7.25;4.57;;;;;;;17.98;43.24;100251.59;5291376;33;34936;-86
2023/03/22 14:55:26;;;;;;;7.40;5.10;;;;;;;17.83;42.83;100244.66;5277333;33;33521;-88
2023/03/22 14:58:34;;;;;;;6.90;4.60;;;;;;;17.84;43.18;100242.75;5290608;33;33798;-86
2023/03/22 15:01:40;;;;;;;8.35;4.97;;;;;;;17.82;42.83;100239.44;5285084;33;167669;-86
2023/03/22 15:04:44;;;;;;;7.32;4.68;;;;;;;17.67;43.98;100237.09;5276734;33;34034;-86
2023/03/22 15:08:10;;;;;;;7.00;4.10;;;;;;;17.67;42.61;100229.75;5265809;33;33221;-86
2023/03/22 15:11:13;;;;;;;8.23;4.82;;;;;;;17.37;44.16;100237.81;5288697;33;33180;-87
2023/03/22 15:14:16;;;;;;;7.85;5.00;;;;;;;17.32;44.82;100234.97;5262273;33;33842;-86
2023/03/22 15:17:18;;;;;;;9.27;5.53;;;;;;;17.31;44.95;100233.28;5283802;33;34908;-83
2023/03/22 15:20:30;;;;;;;9.77;6.07;;;;;;;17.18;45.88;100228.81;5253138;33;33035;-86
2023/03/22 15:23:35;;;;;;;10.43;5.70;;;;;;;17.02;46.80;100229.41;5277480;33;33669;-87
2023/03/22 15:26:41;;;;;;;10.70;5.90;;;;;;;16.95;47.23;100225.91;5293179;33;33613;-86
2023/03/22 15:29:43;;;;;;;11.98;5.65;;;;;;;16.99;47.59;100221.69;5291104;33;33460;-85
2023/03/22 15:32:46;;;;;;;12.25;5.47;;;;;;;16.90;47.00;100223.84;5264994;33;33809;-86
2023/03/22 15:35:49;;;;;;;10.18;5.72;;;;;;;16.87;47.57;100220.75;5277132;33;34309;-86
2023/03/22 15:38:51;;;;;;;9.57;5.57;;;;;;;16.82;47.61;100216.00;5289170;33;33877;-84
2023/03/22 15:42:10;;;;;;;9.32;5.57;;;;;;;16.76;47.86;100222.34;5256251;33;33505;-84
2023/03/22 15:45:17;;;;;;;;;;;;;;;16.74;48.29;100213.53;5289223;33;33650;-84
2023/03/22 15:48:19;;;;;;;10.63;5.50;;;;;;;16.56;48.95;100217.03;5280299;33;34352;-85
2023/03/22 15:51:29;;;;;;;10.57;6.05;;;;;;;16.54;48.92;100216.41;5288523;33;34837;-85
2023/03/22 15:54:32;;;;;;;10.77;5.80;;;;;;;16.58;48.77;100217.63;5286478;33;34957;-85
2023/03/22 15:57:38;;;;;;;10.98;6.12;;;;;;;16.51;49.13;100211.41;5249151;33;33280;-85
2023/03/22 16:00:43;;;;;;;10.50;5.90;;;;;;;16.47;49.18;100205.59;5273975;33;33605;-85
2023/03/22 16:03:55;;;;;;;10.82;6.12;;;;;;;16.57;50.19;100207.81;5260479;33;33151;-85
2023/03/22 16:06:57;;;;;;;10.10;6.10;;;;;;;16.39;50.17;100214.00;5272476;33;34188;-86
2023/03/22 16:09:59;;;;;;;10.95;6.18;;;;;;;16.15;51.20;100212.09;5272320;33;33639;-87
2023/03/22 16:13:13;;;;;;;13.02;6.62;;;;;;;16.12;51.29;100202.50;5247985;33;33476;-87
2023/03/22 16:16:18;;;;;;;12.30;6.30;;;;;;;15.84;53.07;100213.72;5259316;33;33522;-86
2023/03/22 16:19:19;;;;;;;12.37;6.30;;;;;;;15.74;53.09;100211.47;5259315;33;33591;-86
2023/03/22 16:22:21;;;;;;;12.65;6.32;;;;;;;15.55;54.18;100212.34;5247570;33;34067;-86
2023/03/22 16:25:24;;;;;;;9.02;5.65;;;;;;;15.38;54.20;100214.69;5259181;33;33527;-86
2023/03/22 16:28:26;;;;;;;12.32;6.10;;;;;;;15.29;54.84;100211.38;5248491;33;33467;-86
2023/03/22 16:31:28;;;;;;;8.10;5.50;;;;;;;15.10;55.48;100212.28;5237858;33;33352;-86
2023/03/22 16:34:30;;;;;;;9.52;5.70;;;;;;;14.91;56.29;100205.81;5272732;33;34426;-86
2023/03/22 16:37:33;;;;;;;8.82;5.43;;;;;;;14.87;56.17;100210.00;5259262;33;33453;-86
2023/03/22 16:40:35;;;;;;;10.80;5.07;;;;;;;14.79;56.83;100213.75;5272011;33;33272;-86
2023/03/22 16:43:37;;;;;;;10.57;4.85;;;;;;;14.72;56.41;100221.06;5259066;33;34191;-86
2023/03/22 16:46:39;;;;;;;9.10;5.37;;;;;;;14.65;57.25;100222.91;5259376;33;33123;-86
2023/03/22 16:49:41;;;;;;;8.57;5.70;;;;;;;14.45;57.68;100220.16;5247483;33;33847;-86
2023/03/22 16:52:44;;;;;;;8.90;5.22;;;;;;;14.26;58.47;100225.34;5272657;33;35001;-86
2023/03/22 16:55:45;;;;;;;8.70;5.32;;;;;;;14.10;58.84;100227.59;5259134;33;33929;-86
2023/03/22 16:58:47;;;;;;;10.77;5.57;;;;;;;13.89;60.43;100231.28;5258069;33;33518;-86
